ImprimablePdf
Running Tour > 2011 - Averbode, 22/05/2011, BEL - Abdijentocht Tongerlo - Averbode
Liste des rapports > 16km - Classement + Video
Recherche: Page: [1] 2 3 4 5 6 7 8
1516 Entrées
 
Les réclamations ne sont plus acceptées, les résultats sont considérés comme définitifs.
Catégorie
PosNrNomAgeIOCTempsTkmMoy.RangNomLocalité
1.1631BERTELS Jelle26BEL53:493:22 17.841SEHZONHOVEN
2.19PRIMS Jo27BEL55:473:30 17.212SEHBOUWEL
3.1504LA GERCHE Andre38BEL56:033:31 17.131M35SCHAERBEEK
4.20VAN DYCK Pieter25BEL56:393:33 16.953SEHZANDHOVEN
5.1051VAN DE GAER Wesley31BEL56:513:34 16.894SEHZICHEM
6.90MCNAUGHTON Michael35BEL56:593:34 16.852M35BERCHEM
7.474KAERS Pascal39BEL57:093:35 16.803M35BEGIJNENDIJK
8.1531RUMPAKWAEN NidBEL57:413:37 16.65-GRIMBERGEN
9.2418LUYTEN Kristof25BEL57:533:38 16.595SEHHERSELT
10.49RENS Stefan43BEL58:053:38 16.531M40MORKHOVEN
11.79DOUWEN Rob24BEL58:183:39 16.476SEHWESTERLO
12.78VAN DYCK Tom29BEL58:363:40 16.397SEHSCHOTEN
13.56VAN DE SANDE Luc41BEL59:033:42 16.262M40MUIZEN (MECHELEN)
14.82WILLEMEN Bart26BEL59:053:42 16.258SEHWILRIJK
15.1774BORGHS Bart11BEL59:173:43 16.209SEH
16.151MOENS Luc45BEL59:253:43 16.161M45BONHEIDEN
17.64DIERCKX Willem24BEL59:423:44 16.0810SEHHERSELT
18.1757RIJNDERS Jeroen34BEL59:483:45 16.0611SEH
19.2348DE COSTER Pieter25BEL1:00:113:46 15.9512SEHBOOISCHOT
20.138ROSIERS Marc51BEL1:00:233:47 15.901M50SINT-KATELIJNE-WAVER
21.105COENEN Dirk31BEL1:00:313:47 15.8613SEHHERSELT
22.1412DOCKX Stephan45BEL1:01:483:52 15.542M45BEERZEL
23.1273KINDERS Tommy23BEL1:01:493:52 15.5314SEHVRASENE
24.140PRIMO Gino45BEL1:01:543:53 15.513M45SINT-AMANDSBERG
25.771SPELMANS Ingemar23BEL1:02:013:53 15.4815SEHKESSEL-LO
26.473VAN GESTEL Marc37BEL1:02:013:53 15.484M35LAAKDAL
27.1502VAN DYCK DomienBEL1:02:043:53 15.47-WESTERLO
28.485NIJS Pieter29BEL1:02:103:54 15.4416SEHHERSELT
29.1174SWINNEN Jeroen32BEL1:02:153:54 15.4317SEHBREDENE
30.67PARIDAENS Johan46BEL1:02:283:55 15.374M45MOL
31.861VAN DESSEL Kurt33BEL1:02:293:55 15.3718SEHBONHEIDEN
32.182AVONTS Jeroen28BEL1:02:363:55 15.3419SEHANTWERPEN
33.489MERTENS Kristof32BEL1:02:423:56 15.3120SEHVEERLE
34.87PEETERS Tim28BEL1:02:463:56 15.3021SEHWESTERLO
35.842VERSCHUEREN Robby36BEL1:02:483:56 15.295M35BOORTMEERBEEK
36.491VANKRUNKELSVEN Patrick54BEL1:02:503:56 15.282M50LAAKDAL
37.783DEWULF Jonas25BEL1:03:023:57 15.2322SEHMOEN
38.92CAMS Wim45BEL1:03:063:57 15.225M45HERSELT
39.1357VAN DEN DRIET Pascal45BEL1:03:233:58 15.156M45MECHELEN
40.1218PELGRIMS Kris41BEL1:03:243:58 15.143M40BERLAAR
41.1410VRANCKEN Jo32BEL1:03:253:58 15.1423SEHTONGEREN
42.110GEERTS Alwin41BEL1:03:293:59 15.124M40ONZE-LIEVE-VROUW-WAVER
43.1439GEUDENS Sven34BEL1:03:443:59 15.0624SEHWESTERLO
44.734JOOS Pauwel45BEL1:03:494:00 15.047M45MALDEGEM
45.1113THYS Ronny48BEL1:03:584:00 15.018M45HASSELT
46.154OPRINS Jimmy32BEL1:04:024:01 15.0025SEHBONHEIDEN
47.1476T'SYEN Wim18BEL1:04:054:01 14.9826SEHLAAKDAL
48.472VERBIEST Maurice60BEL1:04:094:01 14.971M60LANGDORP
49.1199FDIELS Tine28BEL1:04:264:02 14.901SEFMERKSPLAS
50.1740QUINTENS Geert48BEL1:04:264:02 14.909M45
51.2470DE WAELE Steven38BEL1:04:354:03 14.876M35
52.1335VERHAVERT Pascal38BEL1:04:394:03 14.857M35BORNEM
53.24FVRANCKX Maria47BEL1:04:424:03 14.841F45HERENTHOUT
54.1257DE SCHUTTER Guy43BEL1:04:534:04 14.805M40MORKHOVEN
55.1592VAN HIEL Nico44BEL1:05:254:06 14.686M40
56.1421DE COCK Philippe26BEL1:05:294:06 14.6627SEHMUIZEN (MECHELEN)
57.1662NAUWELAERTS Jeroen19BEL1:05:324:06 14.6528SEH
58.2427EXELMANS Yves47BEL1:05:434:07 14.6110M45SCHERPENHEUVEL
59.1233VERBIEST Wouter30BEL1:06:004:08 14.5529SEHWESTERLO
60.131VAN DE WATER Wim38BEL1:06:074:08 14.528M35KEERBERGEN
61.846HAPERS Luc40BEL1:06:124:09 14.507M40HERENTALS
62.1499VERELST Roel41BEL1:06:254:10 14.458M40GROBBENDONK
63.1671VAN DE BROECK David36BEL1:06:334:10 14.439M35KESSEL-LO
64.160WOUTERS Bart32BEL1:06:344:10 14.4230SEHLIER
65.1693DVIJSTERS Jan43BEL1:06:384:10 14.419M40
66.1507PATERNOSTER Maxim19BEL1:06:394:10 14.4031SEHHAACHT
67.2452VRANCKX Benoit61BEL1:06:414:11 14.402M60TESSENDERLO
68.139VANSTREELS Mario37BEL1:06:464:11 14.3810M35KERMT
69.130VANWESEMAEL Maarten25BEL1:06:484:11 14.3732SEHHOUTVENNE
70.88GEERLINGS Arne32BEL1:06:554:11 14.3533SEHVIERSEL
71.480STAPPAERTS Werner45BEL1:07:024:12 14.3211M45WESTERLO
72.93SCHELLENS Ivan30BEL1:07:034:12 14.3234SEHWESTERLO
73.132YSENBAARDT Jos49BEL1:07:194:13 14.2612M45BONHEIDEN
74.184JANSSENS Sven22BEL1:07:244:13 14.2435SEHTESTELT
75.1226VANBERGEN Thomas24BEL1:07:254:13 14.2436SEHWESTERLO
76.1663BIJNS TomBEL1:07:264:13 14.24-GEEL
77.1568LUYTEN Rony11BEL1:07:274:13 14.2437SEH
78.1452VANGEEL Geert42BEL1:07:274:13 14.2310M40GEEL
79.136VAN LEUFFELEN Jan45BEL1:07:304:14 14.2313M45WESTERLO
80.477WILLEMS AlexBEL1:07:394:14 14.19-WESTERLO
81.143VERCAUTEREN Jordy36BEL1:07:434:14 14.1811M35ANTWERPEN
82.121BEKERS Tom25BEL1:07:494:15 14.1638SEHHERENTHOUT
83.171VANDENBUSSCHE Frederik32BEL1:07:504:15 14.1639SEHANTWERPEN
84.172STEENPUT Joris49BEL1:07:544:15 14.1414M45HERK-DE-STAD
85.1620HOUBRECHTS Raf39BEL1:07:574:15 14.1312M35
86.1172DELBAEN Patrick47BEL1:07:594:15 14.1215M45
87.1230MARTENS Roel34BEL1:08:024:16 14.1140SEHOEVEL
88.65VLAEYEN Bart44BEL1:08:044:16 14.1111M40KOERSEL
89.134WILLEKENS Tim34BEL1:08:064:16 14.1041SEHWESTERLO
90.1191VAN DE WEYER Luc47BEL1:08:074:16 14.0916M45MEEUWEN-GRUITRODE
91.1324SCHEVERNELS Roger49BEL1:08:094:16 14.0917M45BREE
92.1067AERTS Frank44BEL1:08:094:16 14.0912M40RAVELS
93.494CAMPS Jelle29BEL1:08:134:16 14.0842SEHLAAKDAL
94.1709DECLERCK Jan11BEL1:08:134:16 14.0743SEH
95.2325DEKENS Danny51BEL1:08:164:16 14.063M50
96.1682DROUSHOUDT Jacky39BEL1:08:204:17 14.0513M35EVERE
97.629VAN ESPEN Luc44BEL1:08:214:17 14.0513M40MECHELEN
98.1207THYS Luc11BEL1:08:224:17 14.0444SEH
99.1697DE SCHRIJVER Danny48BEL1:08:294:17 14.0218M45
100.493VANKRUNKELSVEN Willem18BEL1:08:344:18 14.0045SEHLAAKDAL
101.1359BOEHME Marc44BEL1:08:344:18 14.0014M40ANTWERPEN
102.107CIPERS Luc44BEL1:08:364:18 13.9915M40BEERZEL
103.1103CALLENS Alex40BEL1:08:424:18 13.9816M40SCHOTEN
104.1274SWALENS Koen29BEL1:08:424:18 13.9846SEHMESSELBROEK
105.1493CORNAND Ronny51BEL1:08:434:18 13.974M50AALST
106.1773STROEYKENS Karel37BEL1:08:444:18 13.9714M35
107.2453VAN LOOY Wim45BEL1:08:464:18 13.9619M45HERSELT
108.175RYKEN Jef24BEL1:08:534:19 13.9447SEHHERSELT
109.100BEETEN Dieter23BEL1:08:534:19 13.9448SEHLANDEN
110.144CLONEN Bert45BEL1:08:584:19 13.9220M45
111.483LODEWIJCKX Geert44BEL1:09:004:19 13.9217M40MEERHOUT
112.1473RAETS Wim37BEL1:09:024:19 13.9115M35
113.2324COOLS Jef64BEL1:09:054:20 13.903M60
114.1664REEKMANS Johan41BEL1:09:104:20 13.8818M40HERK-DE-STAD
115.779DE RIJCK Joeri42BEL1:09:104:20 13.8819M40WECHELDERZANDE
116.1184VANWESEMBEECK Herman50BEL1:09:134:20 13.875M50KALMTHOUT
117.54VERSCHUEREN Raf30BEL1:09:134:20 13.8749SEHBEERZEL
118.968DILIEN Victor62BEL1:09:154:20 13.874M60PEER
119.2451WILLEMS Gil25BEL1:09:154:20 13.8650SEHAVERBODE
120.169MAES Peter33BEL1:09:184:20 13.8551SEHLANGDORP
121.721VAN DONINCK Ivo33BEL1:09:194:20 13.8552SEHLAAKDAL
122.1609MARTENS Tom34BEL1:09:254:21 13.8353SEH
123.109HERREMAN Chris54BEL1:09:374:22 13.796M50ZOTTEGEM
124.179LEMMENS Tom32BEL1:09:374:22 13.7954SEHKOERSEL
125.476VAN NYLEN Marc38BEL1:09:394:22 13.7916M35HAM
126.1211LUYTEN Steven32BEL1:09:404:22 13.7855SEH
127.1628JOCHMANS MarioBEL1:09:424:22 13.77-TIELT-WINGE
128.1306TESTELMANS Eddy55BEL1:09:454:22 13.761M55
129.1695DE WEERDT Raf40BEL1:09:464:22 13.7620M40
130.1542LHEYLEN Guy47BEL1:09:494:22 13.75-
131.1414VAN VLIERKEN Gert19BEL1:09:504:22 13.7556SEH
132.479WUYTS Peter42BEL1:09:524:22 13.7421M40GEEL
133.769MAES Kim34BEL1:09:524:22 13.7457SEHLICHTAART
134.1784WAUTERS Stef44BEL1:09:544:23 13.7422M40
135.566MEERSSCHAUT Franky51BEL1:09:544:23 13.737M50HOBOKEN (ANTWERPEN)
136.91WAUTERS Filip43BEL1:09:574:23 13.7223M40NOORDERWIJK
137.1815VAN MOSSEVELDS Tim11BEL1:09:584:23 13.7258SEH
138.1322VANDERSTAPPEN Tom40BEL1:10:024:23 13.7124M40AARSCHOT
139.482BEYNS Robert51BEL1:10:034:23 13.708M50HAM
140.1428HOREMANS Jan29BEL1:10:054:23 13.7059SEHWESTERLO
141.85BOES Ronny51BEL1:10:064:23 13.709M50AARSCHOT
142.115LANKERS Stijn31BEL1:10:094:24 13.6960SEHHERENTALS
143.1049VERTOMMEN Joris28BEL1:10:094:24 13.6961SEHLEUVEN
144.1606RODIERS Ronald32BEL1:10:104:24 13.6862SEH
145.55VANLOFFELT Peter48BEL1:10:124:24 13.6821M45BILZEN
146.2417BELMANS Koen41BEL1:10:124:24 13.6825M40GEEL
147.1418VAN SCHOOR Johan28BEL1:10:134:24 13.6763SEHWOMMELGEM
148.475HENDRIKX Harry45BEL1:10:144:24 13.6722M45EINDHOUT
149.2334VANKRUNCKELSVEN Wim34BEL1:10:144:24 13.6764SEH
150.164VAERNEWYCK Bram28BEL1:10:154:24 13.6765SEHHERENTALS
151.1544GONZALES CONGJO Luis Fernando43BEL1:10:174:24 13.6626M40
152.128WOUTERS Luc42BEL1:10:184:24 13.6627M40WESTERLO
153.2355VAN ROOY Jef55BEL1:10:184:24 13.662M55
154.69THEYS Bart31BEL1:10:234:24 13.6466SEHMOLENSTEDE
155.125VAN MALDEGHEM Gert37BEL1:10:264:25 13.6317M35OELEGEM
156.1701LAUWERIER Andy11BEL1:10:264:25 13.6367SEH
157.1069WILLEMS Bart37BEL1:10:294:25 13.6218M35HEVERLEE
158.481BELMANS StevenBEL1:10:354:25 13.60-EINDHOUT
159.1484VENTIEGHEM Mattias26BEL1:10:374:25 13.6068SEHHEVERLEE
160.1448VAN HERCK Bart45BEL1:10:394:25 13.5923M45
161.118QUICK Steven38BEL1:10:394:25 13.5919M35KONTICH
162.1683ANDRIESSEN Nicolas26BEL1:10:404:25 13.5969SEHEDEGEM
163.877GOOSSENS Bart41BEL1:10:414:26 13.5828M40BEERSE
164.96MEURIS Patrik43BEL1:10:424:26 13.5829M40SCHRIEK
165.1435BOSMANS Marc48BEL1:10:454:26 13.5724M45
166.752SMEULDERS Thomas39BEL1:10:494:26 13.5620M35NIEL
167.2496SWINNEN Jan31BEL1:10:504:26 13.5670SEHTESSENDERLO
168.1692GREVENDONK Rik49BEL1:10:534:26 13.5525M45
169.86COSEMANS Bart45BEL1:10:534:26 13.5426M45LUMMEN
170.1004KESTERMONT Bart42BEL1:10:544:26 13.5430M40DEURNE
171.106SEGAERT Pieter29BEL1:10:574:27 13.5371SEHBERCHEM
172.1355GOLVERS Aime53BEL1:10:584:27 13.5310M50BONHEIDEN
173.1220DANCKERS Jeroen30BEL1:11:024:27 13.5272SEHWESTERLO
174.878VAN DE POL Gust51BEL1:11:034:27 13.5111M50OUD-TURNHOUT
175.123SCHELKENS Chris50BEL1:11:074:27 13.5012M50DENDERMONDE
176.1204CEUSTERS Gerry39BEL1:11:114:27 13.4921M35
177.137FDE POORTER Heidi34BEL1:11:154:28 13.482SEFGENT(SA)
178.2495SWINNEN Dirk29BEL1:11:154:28 13.4773SEHTESSENDERLO
179.1684JORDENS Bram34BEL1:11:154:28 13.4774SEHSCHERPENHEUVEL-ZICHEM
180.1562MARIËN Arne30BEL1:11:164:28 13.4775SEH
181.1057DEBAENE Bram29BEL1:11:164:28 13.4776SEHIZEGEM
182.1237HELLEMANS Sander14BEL1:11:194:28 13.4677SEHTONGERLO (ANTW.)
183.1129CAMPE Cedric44BEL1:11:224:28 13.4531M40ROTSELAAR
184.1429MERKEN Vally49BEL1:11:224:28 13.4527M45HOESELT
185.1792VAN TULDER Koen39BEL1:11:224:28 13.4522M35
186.1405VANLEENE Ruben29BEL1:11:254:28 13.4478SEH
187.1190SALLER Jaap37BEL1:11:264:28 13.4423M35BORGERHOUT
188.112SCHROONS Gert49BEL1:11:294:29 13.4328M45BONHEIDEN
189.656GELIN Peter29BEL1:11:304:29 13.4379SEHGENK
190.735WYNS Jochen38BEL1:11:314:29 13.4224M35GRIMBERGEN
191.129VERACHTEN Paul55BEL1:11:334:29 13.423M55DESSEL
192.2344EXELMANS Peter11BEL1:11:344:29 13.4180SEH
193.1730DE LOOSE Martijn32BEL1:11:364:29 13.4181SEH
194.1348REYNDERS JosBEL1:11:374:29 13.41-PAAL
195.1615KERKHOFS Danny43BEL1:11:404:29 13.4032M40
196.969VAN LAER Christoph39BEL1:11:434:29 13.3925M35MESSELBROEK
197.2327COOLS Bart42BEL1:11:464:30 13.3833M40
198.122DE NOLF Evert28BEL1:11:534:30 13.3682SEH
199.2253DEFERM Frank47BEL1:11:564:30 13.3529M45DIEST
200.537VAN RAEMDONCK Heini47NLD1:11:564:30 13.3530M45PUTTE WOENSDRECHT
DNF: abandon; DSQ: disqualifié; Vitesse en km/h
ChronoRace - Electronic Timing - www.chronorace.be